sensor_id;sensor_type;location;lat;lon;timestamp;temperature;humidity
18189;DHT22;9219;50.396;8.546;2022-09-01T00:00:51;19.60;99.90
18189;DHT22;9219;50.396;8.546;2022-09-01T00:03:20;19.60;99.90
18189;DHT22;9219;50.396;8.546;2022-09-01T00:05:50;19.60;99.90
18189;DHT22;9219;50.396;8.546;2022-09-01T00:08:20;19.60;99.90
18189;DHT22;9219;50.396;8.546;2022-09-01T00:10:48;19.50;99.90
18189;DHT22;9219;50.396;8.546;2022-09-01T00:13:16;19.50;99.90
18189;DHT22;9219;50.396;8.546;2022-09-01T00:20:49;19.40;99.90
18189;DHT22;9219;50.396;8.546;2022-09-01T00:23:16;19.50;99.90
18189;DHT22;9219;50.396;8.546;2022-09-01T00:25:44;19.40;99.90
18189;DHT22;9219;50.396;8.546;2022-09-01T00:28:11;19.40;99.90
18189;DHT22;9219;50.396;8.546;2022-09-01T00:30:38;19.40;99.90
18189;DHT22;9219;50.396;8.546;2022-09-01T00:33:06;19.30;99.90
18189;DHT22;9219;50.396;8.546;2022-09-01T00:35:33;19.30;99.90
18189;DHT22;9219;50.396;8.546;2022-09-01T00:43:28;19.20;99.90
18189;DHT22;9219;50.396;8.546;2022-09-01T00:46:02;19.00;99.90
18189;DHT22;9219;50.396;8.546;2022-09-01T00:48:30;19.00;99.90
18189;DHT22;9219;50.396;8.546;2022-09-01T00:50:59;19.00;99.90
18189;DHT22;9219;50.396;8.546;2022-09-01T00:53:27;19.00;99.90
18189;DHT22;9219;50.396;8.546;2022-09-01T00:55:55;19.00;99.90
18189;DHT22;9219;50.396;8.546;2022-09-01T00:58:22;19.00;99.90
18189;DHT22;9219;50.396;8.546;2022-09-01T01:05:57;19.10;99.90
18189;DHT22;9219;50.396;8.546;2022-09-01T01:08:28;19.00;99.90
18189;DHT22;9219;50.396;8.546;2022-09-01T01:11:00;19.10;99.90
18189;DHT22;9219;50.396;8.546;2022-09-01T01:13:28;19.00;99.90
18189;DHT22;9219;50.396;8.546;2022-09-01T01:15:57;19.00;99.90
18189;DHT22;9219;50.396;8.546;2022-09-01T01:18:25;19.00;99.90
18189;DHT22;9219;50.396;8.546;2022-09-01T01:20:58;19.00;99.90
18189;DHT22;9219;50.396;8.546;2022-09-01T01:28:49;19.00;99.90
18189;DHT22;9219;50.396;8.546;2022-09-01T01:31:20;18.90;99.90
18189;DHT22;9219;50.396;8.546;2022-09-01T01:33:51;18.90;99.90
18189;DHT22;9219;50.396;8.546;2022-09-01T01:36:22;18.90;99.90
18189;DHT22;9219;50.396;8.546;2022-09-01T01:38:57;18.90;99.90
18189;DHT22;9219;50.396;8.546;2022-09-01T01:41:29;18.80;99.90
18189;DHT22;9219;50.396;8.546;2022-09-01T01:43:59;18.80;99.90
18189;DHT22;9219;50.396;8.546;2022-09-01T01:51:35;18.80;99.90
18189;DHT22;9219;50.396;8.546;2022-09-01T01:54:02;18.70;99.90
18189;DHT22;9219;50.396;8.546;2022-09-01T01:56:33;18.60;99.90
18189;DHT22;9219;50.396;8.546;2022-09-01T01:59:03;18.60;99.90
18189;DHT22;9219;50.396;8.546;2022-09-01T02:01:34;18.50;99.90
18189;DHT22;9219;50.396;8.546;2022-09-01T02:04:01;18.40;99.90
18189;DHT22;9219;50.396;8.546;2022-09-01T02:06:32;18.40;99.90
18189;DHT22;9219;50.396;8.546;2022-09-01T02:14:05;18.20;99.90
18189;DHT22;9219;50.396;8.546;2022-09-01T02:16:34;18.10;99.90
18189;DHT22;9219;50.396;8.546;2022-09-01T02:19:06;18.00;99.90
18189;DHT22;9219;50.396;8.546;2022-09-01T02:21:34;18.00;99.90
18189;DHT22;9219;50.396;8.546;2022-09-01T02:24:04;17.80;99.90
18189;DHT22;9219;50.396;8.546;2022-09-01T02:26:36;17.70;99.90
18189;DHT22;9219;50.396;8.546;2022-09-01T02:29:07;17.80;99.90
18189;DHT22;9219;50.396;8.546;2022-09-01T02:36:42;17.80;99.90
18189;DHT22;9219;50.396;8.546;2022-09-01T02:39:13;17.70;99.90
18189;DHT22;9219;50.396;8.546;2022-09-01T02:41:41;17.70;99.90
18189;DHT22;9219;50.396;8.546;2022-09-01T02:44:09;17.50;99.90
18189;DHT22;9219;50.396;8.546;2022-09-01T02:46:38;17.40;99.90
18189;DHT22;9219;50.396;8.546;2022-09-01T02:49:09;17.50;99.90
18189;DHT22;9219;50.396;8.546;2022-09-01T02:51:42;17.50;99.90
18189;DHT22;9219;50.396;8.546;2022-09-01T03:02:23;17.50;99.90
18189;DHT22;9219;50.396;8.546;2022-09-01T03:04:54;17.20;99.90
18189;DHT22;9219;50.396;8.546;2022-09-01T03:07:22;17.20;99.90
18189;DHT22;9219;50.396;8.546;2022-09-01T03:09:51;17.10;99.90
18189;DHT22;9219;50.396;8.546;2022-09-01T03:12:18;17.20;99.90
18189;DHT22;9219;50.396;8.546;2022-09-01T03:14:45;17.20;99.90
18189;DHT22;9219;50.396;8.546;2022-09-01T03:17:12;17.10;99.90
18189;DHT22;9219;50.396;8.546;2022-09-01T03:24:44;17.20;99.90
18189;DHT22;9219;50.396;8.546;2022-09-01T03:27:12;16.90;99.90
18189;DHT22;9219;50.396;8.546;2022-09-01T03:29:39;16.80;99.90
18189;DHT22;9219;50.396;8.546;2022-09-01T03:32:06;16.70;99.90
18189;DHT22;9219;50.396;8.546;2022-09-01T03:34:34;16.70;99.90
18189;DHT22;9219;50.396;8.546;2022-09-01T03:37:02;16.80;99.90
18189;DHT22;9219;50.396;8.546;2022-09-01T03:39:32;16.80;99.90
18189;DHT22;9219;50.396;8.546;2022-09-01T03:49:30;16.90;99.90
18189;DHT22;9219;50.396;8.546;2022-09-01T03:51:57;16.80;99.90
18189;DHT22;9219;50.396;8.546;2022-09-01T03:54:26;16.80;99.90
18189;DHT22;9219;50.396;8.546;2022-09-01T03:56:55;16.80;99.90
18189;DHT22;9219;50.396;8.546;2022-09-01T03:59:23;16.80;99.90
18189;DHT22;9219;50.396;8.546;2022-09-01T04:01:51;16.80;99.90
18189;DHT22;9219;50.396;8.546;2022-09-01T04:04:18;16.80;99.90
18189;DHT22;9219;50.396;8.546;2022-09-01T04:11:43;16.90;99.90
18189;DHT22;9219;50.396;8.546;2022-09-01T04:14:12;17.00;99.90
18189;DHT22;9219;50.396;8.546;2022-09-01T04:16:40;16.70;99.90
18189;DHT22;9219;50.396;8.546;2022-09-01T04:19:27;16.80;99.90
18189;DHT22;9219;50.396;8.546;2022-09-01T04:21:57;16.70;99.90
18189;DHT22;9219;50.396;8.546;2022-09-01T04:24:27;16.70;99.90
18189;DHT22;9219;50.396;8.546;2022-09-01T04:26:59;16.60;99.90
18189;DHT22;9219;50.396;8.546;2022-09-01T04:34:34;16.50;99.90
18189;DHT22;9219;50.396;8.546;2022-09-01T04:37:09;16.40;99.90
18189;DHT22;9219;50.396;8.546;2022-09-01T04:39:36;16.20;99.90
18189;DHT22;9219;50.396;8.546;2022-09-01T04:42:05;16.20;99.90
18189;DHT22;9219;50.396;8.546;2022-09-01T04:44:35;16.00;99.90
18189;DHT22;9219;50.396;8.546;2022-09-01T04:47:03;16.00;99.90
18189;DHT22;9219;50.396;8.546;2022-09-01T04:49:37;16.10;99.90
18189;DHT22;9219;50.396;8.546;2022-09-01T04:57:10;16.20;99.90
18189;DHT22;9219;50.396;8.546;2022-09-01T04:59:37;16.20;99.90
18189;DHT22;9219;50.396;8.546;2022-09-01T05:02:05;16.20;99.90
18189;DHT22;9219;50.396;8.546;2022-09-01T05:04:36;16.30;99.90
18189;DHT22;9219;50.396;8.546;2022-09-01T05:07:07;16.10;99.90
18189;DHT22;9219;50.396;8.546;2022-09-01T05:09:36;16.10;99.90
18189;DHT22;9219;50.396;8.546;2022-09-01T05:12:04;15.90;99.90
18189;DHT22;9219;50.396;8.546;2022-09-01T05:17:21;16.00;99.90
18189;DHT22;9219;50.396;8.546;2022-09-01T05:19:48;16.00;99.90
18189;DHT22;9219;50.396;8.546;2022-09-01T05:22:16;15.90;99.90
18189;DHT22;9219;50.396;8.546;2022-09-01T05:24:47;15.80;99.90
18189;DHT22;9219;50.396;8.546;2022-09-01T05:27:21;15.70;99.90
18189;DHT22;9219;50.396;8.546;2022-09-01T05:29:49;15.70;99.90
18189;DHT22;9219;50.396;8.546;2022-09-01T05:32:16;15.50;99.90
18189;DHT22;9219;50.396;8.546;2022-09-01T05:34:45;15.40;99.90
18189;DHT22;9219;50.396;8.546;2022-09-01T05:42:18;15.60;99.90
18189;DHT22;9219;50.396;8.546;2022-09-01T05:44:47;15.70;99.90
18189;DHT22;9219;50.396;8.546;2022-09-01T05:47:18;15.90;99.90
18189;DHT22;9219;50.396;8.546;2022-09-01T05:49:47;15.90;99.90
18189;DHT22;9219;50.396;8.546;2022-09-01T05:52:15;16.00;99.90
18189;DHT22;9219;50.396;8.546;2022-09-01T05:54:43;16.10;99.90
18189;DHT22;9219;50.396;8.546;2022-09-01T05:57:15;15.90;99.90
18189;DHT22;9219;50.396;8.546;2022-09-01T06:00:04;16.00;99.90
18189;DHT22;9219;50.396;8.546;2022-09-01T06:07:45;15.80;99.90
18189;DHT22;9219;50.396;8.546;2022-09-01T06:10:12;15.50;99.90
18189;DHT22;9219;50.396;8.546;2022-09-01T06:12:40;15.30;99.90
18189;DHT22;9219;50.396;8.546;2022-09-01T06:15:09;15.20;99.90
18189;DHT22;9219;50.396;8.546;2022-09-01T06:17:41;15.10;99.90
18189;DHT22;9219;50.396;8.546;2022-09-01T06:20:09;14.90;99.90
18189;DHT22;9219;50.396;8.546;2022-09-01T06:22:37;15.10;99.90
18189;DHT22;9219;50.396;8.546;2022-09-01T06:30:14;15.30;99.90
18189;DHT22;9219;50.396;8.546;2022-09-01T06:32:49;15.40;99.90
18189;DHT22;9219;50.396;8.546;2022-09-01T06:35:17;15.60;99.90
18189;DHT22;9219;50.396;8.546;2022-09-01T06:37:45;15.50;99.90
18189;DHT22;9219;50.396;8.546;2022-09-01T06:40:15;15.60;99.90
18189;DHT22;9219;50.396;8.546;2022-09-01T06:42:43;15.40;99.90
18189;DHT22;9219;50.396;8.546;2022-09-01T06:45:14;15.50;99.90
18189;DHT22;9219;50.396;8.546;2022-09-01T06:50:22;15.60;99.90
18189;DHT22;9219;50.396;8.546;2022-09-01T06:53:09;15.40;99.90
18189;DHT22;9219;50.396;8.546;2022-09-01T06:55:57;15.60;99.90
18189;DHT22;9219;50.396;8.546;2022-09-01T06:58:26;15.90;99.90
18189;DHT22;9219;50.396;8.546;2022-09-01T07:00:56;15.80;99.90
18189;DHT22;9219;50.396;8.546;2022-09-01T07:03:24;16.00;99.90
18189;DHT22;9219;50.396;8.546;2022-09-01T07:05:53;16.00;99.90
18189;DHT22;9219;50.396;8.546;2022-09-01T07:15:53;16.00;99.90
18189;DHT22;9219;50.396;8.546;2022-09-01T07:18:43;16.10;99.90
18189;DHT22;9219;50.396;8.546;2022-09-01T07:21:24;16.20;99.90
18189;DHT22;9219;50.396;8.546;2022-09-01T07:24:13;16.40;99.90
18189;DHT22;9219;50.396;8.546;2022-09-01T07:26:43;16.70;99.90
18189;DHT22;9219;50.396;8.546;2022-09-01T07:29:17;16.90;99.90
18189;DHT22;9219;50.396;8.546;2022-09-01T07:31:48;16.80;99.90
18189;DHT22;9219;50.396;8.546;2022-09-01T07:39:41;17.40;99.90
18189;DHT22;9219;50.396;8.546;2022-09-01T07:42:18;17.40;99.90
18189;DHT22;9219;50.396;8.546;2022-09-01T07:45:07;17.70;99.90
18189;DHT22;9219;50.396;8.546;2022-09-01T07:47:55;17.70;99.90
18189;DHT22;9219;50.396;8.546;2022-09-01T07:50:25;17.70;99.90
18189;DHT22;9219;50.396;8.546;2022-09-01T07:53:14;18.10;99.90
18189;DHT22;9219;50.396;8.546;2022-09-01T07:55:44;18.10;99.90
18189;DHT22;9219;50.396;8.546;2022-09-01T08:03:22;18.20;99.90
18189;DHT22;9219;50.396;8.546;2022-09-01T08:05:50;18.20;99.90
18189;DHT22;9219;50.396;8.546;2022-09-01T08:08:24;18.40;99.90
18189;DHT22;9219;50.396;8.546;2022-09-01T08:10:55;18.20;99.90
18189;DHT22;9219;50.396;8.546;2022-09-01T08:13:30;18.20;99.90
18189;DHT22;9219;50.396;8.546;2022-09-01T08:16:05;17.80;99.90
18189;DHT22;9219;50.396;8.546;2022-09-01T08:18:43;17.90;99.90
18189;DHT22;9219;50.396;8.546;2022-09-01T08:26:05;17.70;99.90
18189;DHT22;9219;50.396;8.546;2022-09-01T08:28:34;18.00;99.90
18189;DHT22;9219;50.396;8.546;2022-09-01T08:31:05;17.80;99.90
18189;DHT22;9219;50.396;8.546;2022-09-01T08:33:37;17.80;99.90
18189;DHT22;9219;50.396;8.546;2022-09-01T08:36:07;17.90;99.90
18189;DHT22;9219;50.396;8.546;2022-09-01T08:38:35;18.20;99.90
18189;DHT22;9219;50.396;8.546;2022-09-01T08:41:06;18.70;99.90
18189;DHT22;9219;50.396;8.546;2022-09-01T08:48:47;18.90;99.90
18189;DHT22;9219;50.396;8.546;2022-09-01T08:51:39;19.30;99.90
18189;DHT22;9219;50.396;8.546;2022-09-01T08:54:15;19.60;99.90
18189;DHT22;9219;50.396;8.546;2022-09-01T08:57:02;19.80;99.90
18189;DHT22;9219;50.396;8.546;2022-09-01T08:59:31;20.00;99.90
18189;DHT22;9219;50.396;8.546;2022-09-01T09:02:06;20.20;99.90
18189;DHT22;9219;50.396;8.546;2022-09-01T09:04:52;20.40;99.90
18189;DHT22;9219;50.396;8.546;2022-09-01T09:12:50;20.70;99.90
18189;DHT22;9219;50.396;8.546;2022-09-01T09:15:27;21.30;99.90
18189;DHT22;9219;50.396;8.546;2022-09-01T09:18:12;21.60;99.90
18189;DHT22;9219;50.396;8.546;2022-09-01T09:21:08;21.80;99.90
18189;DHT22;9219;50.396;8.546;2022-09-01T09:23:41;21.80;99.90
18189;DHT22;9219;50.396;8.546;2022-09-01T09:26:09;22.00;99.90
18189;DHT22;9219;50.396;8.546;2022-09-01T09:28:38;22.30;99.90
18189;DHT22;9219;50.396;8.546;2022-09-01T09:34:18;22.40;99.90
18189;DHT22;9219;50.396;8.546;2022-09-01T09:36:55;22.60;99.90
18189;DHT22;9219;50.396;8.546;2022-09-01T09:39:23;22.70;99.90
18189;DHT22;9219;50.396;8.546;2022-09-01T09:42:04;23.00;99.90
18189;DHT22;9219;50.396;8.546;2022-09-01T09:44:42;23.30;99.90
18189;DHT22;9219;50.396;8.546;2022-09-01T09:47:33;23.60;99.90
18189;DHT22;9219;50.396;8.546;2022-09-01T09:58:14;24.40;99.90
18189;DHT22;9219;50.396;8.546;2022-09-01T10:00:58;24.90;99.90
18189;DHT22;9219;50.396;8.546;2022-09-01T10:03:39;25.20;99.90
18189;DHT22;9219;50.396;8.546;2022-09-01T10:06:31;25.60;99.90
18189;DHT22;9219;50.396;8.546;2022-09-01T10:08:59;25.90;99.90
18189;DHT22;9219;50.396;8.546;2022-09-01T10:11:30;26.10;99.90
18189;DHT22;9219;50.396;8.546;2022-09-01T10:14:05;26.20;99.90
18189;DHT22;9219;50.396;8.546;2022-09-01T10:23:59;26.60;99.90
18189;DHT22;9219;50.396;8.546;2022-09-01T10:26:51;26.70;99.90
18189;DHT22;9219;50.396;8.546;2022-09-01T10:29:22;26.80;99.90
18189;DHT22;9219;50.396;8.546;2022-09-01T10:31:52;26.60;99.90
18189;DHT22;9219;50.396;8.546;2022-09-01T10:34:41;26.70;99.90
18189;DHT22;9219;50.396;8.546;2022-09-01T10:37:09;27.00;99.90
18189;DHT22;9219;50.396;8.546;2022-09-01T10:48:32;27.80;99.90
18189;DHT22;9219;50.396;8.546;2022-09-01T10:51:40;28.30;99.90
18189;DHT22;9219;50.396;8.546;2022-09-01T10:57:44;28.40;99.90
18189;DHT22;9219;50.396;8.546;2022-09-01T11:09:34;28.30;99.90
18189;DHT22;9219;50.396;8.546;2022-09-01T11:15:37;28.50;99.00
18189;DHT22;9219;50.396;8.546;2022-09-01T11:18:09;28.40;99.00
18189;DHT22;9219;50.396;8.546;2022-09-01T11:20:39;28.20;98.80
18189;DHT22;9219;50.396;8.546;2022-09-01T11:23:11;28.50;99.20
18189;DHT22;9219;50.396;8.546;2022-09-01T11:34:03;28.90;97.80
18189;DHT22;9219;50.396;8.546;2022-09-01T11:36:33;28.20;98.10
18189;DHT22;9219;50.396;8.546;2022-09-01T11:39:06;28.70;97.70
18189;DHT22;9219;50.396;8.546;2022-09-01T11:41:52;29.00;97.00
18189;DHT22;9219;50.396;8.546;2022-09-01T11:44:35;29.30;96.60
18189;DHT22;9219;50.396;8.546;2022-09-01T11:47:12;29.50;96.60
18189;DHT22;9219;50.396;8.546;2022-09-01T11:49:49;29.20;95.50
18189;DHT22;9219;50.396;8.546;2022-09-01T11:57:34;29.20;96.30
18189;DHT22;9219;50.396;8.546;2022-09-01T12:00:05;29.20;96.50
18189;DHT22;9219;50.396;8.546;2022-09-01T12:02:35;29.70;95.80
18189;DHT22;9219;50.396;8.546;2022-09-01T12:05:22;29.90;96.00
18189;DHT22;9219;50.396;8.546;2022-09-01T12:07:52;30.20;94.60
18189;DHT22;9219;50.396;8.546;2022-09-01T12:10:33;30.40;93.90
18189;DHT22;9219;50.396;8.546;2022-09-01T12:13:04;30.20;94.40
18189;DHT22;9219;50.396;8.546;2022-09-01T12:18:14;30.10;93.50
18189;DHT22;9219;50.396;8.546;2022-09-01T12:20:47;29.80;93.70
18189;DHT22;9219;50.396;8.546;2022-09-01T12:23:24;30.00;92.90
18189;DHT22;9219;50.396;8.546;2022-09-01T12:25:53;29.80;93.20
18189;DHT22;9219;50.396;8.546;2022-09-01T12:28:23;30.10;93.10
18189;DHT22;9219;50.396;8.546;2022-09-01T12:30:57;30.30;92.20
18189;DHT22;9219;50.396;8.546;2022-09-01T12:33:26;30.40;91.80
18189;DHT22;9219;50.396;8.546;2022-09-01T12:43:39;30.40;91.70
18189;DHT22;9219;50.396;8.546;2022-09-01T12:46:07;30.10;91.20
18189;DHT22;9219;50.396;8.546;2022-09-01T12:48:38;30.00;90.40
18189;DHT22;9219;50.396;8.546;2022-09-01T12:51:15;30.30;90.50
18189;DHT22;9219;50.396;8.546;2022-09-01T12:53:51;30.60;91.20
18189;DHT22;9219;50.396;8.546;2022-09-01T12:56:25;30.80;90.60
18189;DHT22;9219;50.396;8.546;2022-09-01T12:59:10;30.60;90.90
18189;DHT22;9219;50.396;8.546;2022-09-01T13:01:44;30.40;91.00
18189;DHT22;9219;50.396;8.546;2022-09-01T13:09:31;30.10;91.60
18189;DHT22;9219;50.396;8.546;2022-09-01T13:12:15;30.10;91.20
18189;DHT22;9219;50.396;8.546;2022-09-01T13:14:43;30.00;91.00
18189;DHT22;9219;50.396;8.546;2022-09-01T13:17:11;29.90;90.80
18189;DHT22;9219;50.396;8.546;2022-09-01T13:19:40;29.90;91.20
18189;DHT22;9219;50.396;8.546;2022-09-01T13:22:10;29.70;91.30
18189;DHT22;9219;50.396;8.546;2022-09-01T13:24:38;29.70;92.00
18189;DHT22;9219;50.396;8.546;2022-09-01T13:27:07;29.60;91.10
18189;DHT22;9219;50.396;8.546;2022-09-01T13:34:53;29.20;91.80
18189;DHT22;9219;50.396;8.546;2022-09-01T13:37:22;29.30;91.20
18189;DHT22;9219;50.396;8.546;2022-09-01T13:39:51;28.90;91.50
18189;DHT22;9219;50.396;8.546;2022-09-01T13:42:19;28.50;91.50
18189;DHT22;9219;50.396;8.546;2022-09-01T13:44:47;28.70;92.10
18189;DHT22;9219;50.396;8.546;2022-09-01T13:47:18;28.40;92.10
18189;DHT22;9219;50.396;8.546;2022-09-01T13:50:08;28.60;92.50
18189;DHT22;9219;50.396;8.546;2022-09-01T13:52:39;28.80;91.70
18189;DHT22;9219;50.396;8.546;2022-09-01T13:55:10;28.80;91.00
18189;DHT22;9219;50.396;8.546;2022-09-01T14:03:09;28.80;91.40
18189;DHT22;9219;50.396;8.546;2022-09-01T14:05:40;28.70;91.40
18189;DHT22;9219;50.396;8.546;2022-09-01T14:08:09;28.60;91.70
18189;DHT22;9219;50.396;8.546;2022-09-01T14:10:40;28.60;92.00
18189;DHT22;9219;50.396;8.546;2022-09-01T14:13:08;28.60;91.80
18189;DHT22;9219;50.396;8.546;2022-09-01T14:15:37;28.60;91.20
18189;DHT22;9219;50.396;8.546;2022-09-01T14:18:04;28.60;91.30
18189;DHT22;9219;50.396;8.546;2022-09-01T14:23:49;28.30;91.20
18189;DHT22;9219;50.396;8.546;2022-09-01T14:26:17;28.30;91.30
18189;DHT22;9219;50.396;8.546;2022-09-01T14:28:45;28.10;90.80
18189;DHT22;9219;50.396;8.546;2022-09-01T14:31:17;28.00;91.30
18189;DHT22;9219;50.396;8.546;2022-09-01T14:33:45;28.00;90.90
18189;DHT22;9219;50.396;8.546;2022-09-01T14:36:17;28.10;91.00
18189;DHT22;9219;50.396;8.546;2022-09-01T14:38:45;28.10;91.00
18189;DHT22;9219;50.396;8.546;2022-09-01T14:46:05;28.20;91.00
18189;DHT22;9219;50.396;8.546;2022-09-01T14:48:35;28.10;91.20
18189;DHT22;9219;50.396;8.546;2022-09-01T14:51:03;27.60;91.30
18189;DHT22;9219;50.396;8.546;2022-09-01T14:53:33;27.70;91.20
18189;DHT22;9219;50.396;8.546;2022-09-01T14:56:01;27.70;91.00
18189;DHT22;9219;50.396;8.546;2022-09-01T14:58:29;27.50;90.80
18189;DHT22;9219;50.396;8.546;2022-09-01T15:00:57;27.50;91.10
18189;DHT22;9219;50.396;8.546;2022-09-01T15:08:50;27.50;90.70
18189;DHT22;9219;50.396;8.546;2022-09-01T15:11:19;27.60;90.40
18189;DHT22;9219;50.396;8.546;2022-09-01T15:13:46;27.40;90.40
18189;DHT22;9219;50.396;8.546;2022-09-01T15:16:21;27.30;90.70
18189;DHT22;9219;50.396;8.546;2022-09-01T15:18:49;27.40;90.50
18189;DHT22;9219;50.396;8.546;2022-09-01T15:21:19;27.20;90.00
18189;DHT22;9219;50.396;8.546;2022-09-01T15:23:47;27.20;90.30
18189;DHT22;9219;50.396;8.546;2022-09-01T15:31:20;27.20;90.50
18189;DHT22;9219;50.396;8.546;2022-09-01T15:34:00;27.00;90.80
18189;DHT22;9219;50.396;8.546;2022-09-01T15:36:29;27.20;90.70
18189;DHT22;9219;50.396;8.546;2022-09-01T15:38:58;27.20;90.50
18189;DHT22;9219;50.396;8.546;2022-09-01T15:41:30;27.20;90.40
18189;DHT22;9219;50.396;8.546;2022-09-01T15:44:02;27.10;90.50
18189;DHT22;9219;50.396;8.546;2022-09-01T15:46:32;27.00;90.60
18189;DHT22;9219;50.396;8.546;2022-09-01T15:49:04;27.00;90.60
18189;DHT22;9219;50.396;8.546;2022-09-01T15:56:47;26.80;90.90
18189;DHT22;9219;50.396;8.546;2022-09-01T15:59:14;26.90;91.00
18189;DHT22;9219;50.396;8.546;2022-09-01T16:01:44;26.90;90.40
18189;DHT22;9219;50.396;8.546;2022-09-01T16:04:14;27.00;90.50
18189;DHT22;9219;50.396;8.546;2022-09-01T16:06:48;26.80;90.50
18189;DHT22;9219;50.396;8.546;2022-09-01T16:09:21;26.80;90.80
18189;DHT22;9219;50.396;8.546;2022-09-01T16:11:50;26.80;90.60
18189;DHT22;9219;50.396;8.546;2022-09-01T16:14:17;26.70;90.90
18189;DHT22;9219;50.396;8.546;2022-09-01T16:19:40;26.60;91.00
18189;DHT22;9219;50.396;8.546;2022-09-01T16:22:18;26.50;90.90
18189;DHT22;9219;50.396;8.546;2022-09-01T16:24:50;26.50;91.30
18189;DHT22;9219;50.396;8.546;2022-09-01T16:27:22;26.50;91.40
18189;DHT22;9219;50.396;8.546;2022-09-01T16:29:55;26.50;91.40
18189;DHT22;9219;50.396;8.546;2022-09-01T16:32:24;26.50;91.30
18189;DHT22;9219;50.396;8.546;2022-09-01T16:34:53;26.50;91.50
18189;DHT22;9219;50.396;8.546;2022-09-01T16:44:57;26.40;91.30
18189;DHT22;9219;50.396;8.546;2022-09-01T16:47:47;26.30;91.70
18189;DHT22;9219;50.396;8.546;2022-09-01T16:50:25;26.30;91.80
18189;DHT22;9219;50.396;8.546;2022-09-01T16:53:09;26.30;91.70
18189;DHT22;9219;50.396;8.546;2022-09-01T16:55:57;26.40;91.60
18189;DHT22;9219;50.396;8.546;2022-09-01T16:58:32;26.30;91.80
18189;DHT22;9219;50.396;8.546;2022-09-01T17:06:58;26.10;91.80
18189;DHT22;9219;50.396;8.546;2022-09-01T17:09:31;26.20;92.20
18189;DHT22;9219;50.396;8.546;2022-09-01T17:12:16;26.10;92.00
18189;DHT22;9219;50.396;8.546;2022-09-01T17:14:52;25.90;92.10
18189;DHT22;9219;50.396;8.546;2022-09-01T17:17:30;25.90;92.10
18189;DHT22;9219;50.396;8.546;2022-09-01T17:20:02;25.70;92.40
18189;DHT22;9219;50.396;8.546;2022-09-01T17:22:36;25.70;92.20
18189;DHT22;9219;50.396;8.546;2022-09-01T17:27:49;25.70;92.20
18189;DHT22;9219;50.396;8.546;2022-09-01T17:30:19;25.70;92.40
18189;DHT22;9219;50.396;8.546;2022-09-01T17:32:57;25.60;92.20
18189;DHT22;9219;50.396;8.546;2022-09-01T17:35:53;25.50;92.10
18189;DHT22;9219;50.396;8.546;2022-09-01T17:38:31;25.40;92.00
18189;DHT22;9219;50.396;8.546;2022-09-01T17:41:12;25.40;92.10
18189;DHT22;9219;50.396;8.546;2022-09-01T17:43:52;25.30;92.00
18189;DHT22;9219;50.396;8.546;2022-09-01T17:46:29;25.30;92.30
18189;DHT22;9219;50.396;8.546;2022-09-01T17:54:13;25.20;92.20
18189;DHT22;9219;50.396;8.546;2022-09-01T17:56:49;25.20;92.40
18189;DHT22;9219;50.396;8.546;2022-09-01T17:59:23;25.20;92.20
18189;DHT22;9219;50.396;8.546;2022-09-01T18:02:06;25.00;92.30
18189;DHT22;9219;50.396;8.546;2022-09-01T18:04:44;25.10;92.50
18189;DHT22;9219;50.396;8.546;2022-09-01T18:07:25;25.00;92.20
18189;DHT22;9219;50.396;8.546;2022-09-01T18:13:07;24.90;92.50
18189;DHT22;9219;50.396;8.546;2022-09-01T18:15:50;24.80;92.50
18189;DHT22;9219;50.396;8.546;2022-09-01T18:18:32;24.80;92.70
18189;DHT22;9219;50.396;8.546;2022-09-01T18:21:03;24.70;92.60
18189;DHT22;9219;50.396;8.546;2022-09-01T18:23:36;24.70;92.80
18189;DHT22;9219;50.396;8.546;2022-09-01T18:26:09;24.70;92.80
18189;DHT22;9219;50.396;8.546;2022-09-01T18:28:39;24.60;92.80
18189;DHT22;9219;50.396;8.546;2022-09-01T18:38:41;24.50;92.50
18189;DHT22;9219;50.396;8.546;2022-09-01T18:41:25;24.30;92.70
18189;DHT22;9219;50.396;8.546;2022-09-01T18:44:02;24.30;92.90
18189;DHT22;9219;50.396;8.546;2022-09-01T18:46:35;24.10;92.50
18189;DHT22;9219;50.396;8.546;2022-09-01T18:49:11;24.20;92.70
18189;DHT22;9219;50.396;8.546;2022-09-01T18:51:49;24.00;92.70
18189;DHT22;9219;50.396;8.546;2022-09-01T18:54:28;23.90;92.90
18189;DHT22;9219;50.396;8.546;2022-09-01T18:59:52;23.90;92.70
18189;DHT22;9219;50.396;8.546;2022-09-01T19:02:36;23.90;92.80
18189;DHT22;9219;50.396;8.546;2022-09-01T19:05:16;23.70;92.70
18189;DHT22;9219;50.396;8.546;2022-09-01T19:08:15;23.50;92.90
18189;DHT22;9219;50.396;8.546;2022-09-01T19:10:51;23.50;93.30
18189;DHT22;9219;50.396;8.546;2022-09-01T19:13:39;23.50;93.50
18189;DHT22;9219;50.396;8.546;2022-09-01T19:21:20;23.40;93.70
18189;DHT22;9219;50.396;8.546;2022-09-01T19:23:53;23.40;93.80
18189;DHT22;9219;50.396;8.546;2022-09-01T19:26:31;23.40;94.00
18189;DHT22;9219;50.396;8.546;2022-09-01T19:29:05;23.40;94.00
18189;DHT22;9219;50.396;8.546;2022-09-01T19:31:39;23.30;94.20
18189;DHT22;9219;50.396;8.546;2022-09-01T19:34:12;23.30;94.20
18189;DHT22;9219;50.396;8.546;2022-09-01T19:39:31;23.10;94.30
18189;DHT22;9219;50.396;8.546;2022-09-01T19:42:07;23.00;94.60
18189;DHT22;9219;50.396;8.546;2022-09-01T19:44:44;23.00;94.80
18189;DHT22;9219;50.396;8.546;2022-09-01T19:47:25;22.80;94.90
18189;DHT22;9219;50.396;8.546;2022-09-01T19:50:03;22.80;95.00
18189;DHT22;9219;50.396;8.546;2022-09-01T19:52:38;22.70;95.20
18189;DHT22;9219;50.396;8.546;2022-09-01T19:55:13;22.70;95.20
18189;DHT22;9219;50.396;8.546;2022-09-01T20:02:59;22.50;95.60
18189;DHT22;9219;50.396;8.546;2022-09-01T20:05:37;22.40;95.70
18189;DHT22;9219;50.396;8.546;2022-09-01T20:08:12;22.50;96.20
18189;DHT22;9219;50.396;8.546;2022-09-01T20:10:52;22.50;95.80
18189;DHT22;9219;50.396;8.546;2022-09-01T20:16:25;22.40;96.10
18189;DHT22;9219;50.396;8.546;2022-09-01T20:19:03;22.40;96.20
18189;DHT22;9219;50.396;8.546;2022-09-01T20:26:43;22.30;96.40
18189;DHT22;9219;50.396;8.546;2022-09-01T20:29:24;22.00;96.70
18189;DHT22;9219;50.396;8.546;2022-09-01T20:32:00;22.00;96.90
18189;DHT22;9219;50.396;8.546;2022-09-01T20:34:35;22.00;96.90
18189;DHT22;9219;50.396;8.546;2022-09-01T20:37:09;21.90;97.10
18189;DHT22;9219;50.396;8.546;2022-09-01T20:39:44;21.80;97.30
18189;DHT22;9219;50.396;8.546;2022-09-01T20:42:38;21.80;97.50
18189;DHT22;9219;50.396;8.546;2022-09-01T20:50:18;21.70;97.70
18189;DHT22;9219;50.396;8.546;2022-09-01T20:53:01;21.70;97.80
18189;DHT22;9219;50.396;8.546;2022-09-01T20:55:38;21.60;98.00
18189;DHT22;9219;50.396;8.546;2022-09-01T20:58:12;21.60;98.20
18189;DHT22;9219;50.396;8.546;2022-09-01T21:00:46;21.60;98.20
18189;DHT22;9219;50.396;8.546;2022-09-01T21:03:20;21.60;98.20
18189;DHT22;9219;50.396;8.546;2022-09-01T21:06:07;21.50;98.50
18189;DHT22;9219;50.396;8.546;2022-09-01T21:13:50;21.50;98.70
18189;DHT22;9219;50.396;8.546;2022-09-01T21:16:27;21.50;98.80
18189;DHT22;9219;50.396;8.546;2022-09-01T21:19:02;21.40;98.80
18189;DHT22;9219;50.396;8.546;2022-09-01T21:21:35;21.40;99.10
18189;DHT22;9219;50.396;8.546;2022-09-01T21:24:05;21.20;99.40